createdAt,value
2024-05-09T00:00:44.516Z,9.95
2024-05-09T00:03:13.665Z,9.92
2024-05-09T00:05:42.658Z,9.94
2024-05-09T00:08:11.491Z,9.96
2024-05-09T00:10:40.741Z,9.93
2024-05-09T00:13:11.225Z,10.00
2024-05-09T00:15:39.618Z,9.98
2024-05-09T00:18:09.009Z,9.95
2024-05-09T00:20:40.153Z,9.95
2024-05-09T00:23:12.226Z,9.90
2024-05-09T00:25:43.252Z,9.98
2024-05-09T00:28:12.386Z,9.97
2024-05-09T00:30:40.653Z,9.97
2024-05-09T00:33:10.465Z,9.97
2024-05-09T00:35:39.728Z,9.99
2024-05-09T00:38:07.645Z,9.96
2024-05-09T00:40:40.663Z,9.99
2024-05-09T00:43:15.074Z,9.98
2024-05-09T00:45:44.541Z,9.99
2024-05-09T00:48:15.343Z,9.98
2024-05-09T00:50:46.739Z,10.01
2024-05-09T00:53:16.500Z,9.92
2024-05-09T00:55:45.278Z,9.91
2024-05-09T00:58:15.462Z,9.88
2024-05-09T01:00:43.813Z,9.85
2024-05-09T01:03:13.818Z,9.77
2024-05-09T01:05:43.829Z,9.76
2024-05-09T01:08:13.029Z,9.65
2024-05-09T01:10:43.686Z,9.57
2024-05-09T01:13:13.136Z,9.56
2024-05-09T01:15:40.756Z,9.53
2024-05-09T01:18:11.669Z,9.43
2024-05-09T01:20:43.295Z,9.40
2024-05-09T01:23:15.814Z,9.33
2024-05-09T01:25:45.158Z,9.31
2024-05-09T01:28:13.792Z,9.29
2024-05-09T01:30:42.197Z,9.22
2024-05-09T01:33:11.734Z,9.16
2024-05-09T01:35:42.344Z,9.14
2024-05-09T01:38:13.969Z,9.05
2024-05-09T01:40:42.235Z,8.95
2024-05-09T01:43:11.141Z,8.89
2024-05-09T01:45:40.660Z,8.82
2024-05-09T01:48:10.474Z,8.74
2024-05-09T01:50:41.791Z,8.71
2024-05-09T01:53:11.840Z,8.64
2024-05-09T01:55:39.651Z,8.58
2024-05-09T01:58:07.907Z,8.54
2024-05-09T02:00:40.470Z,8.50
2024-05-09T02:03:14.743Z,8.44
2024-05-09T02:05:48.644Z,8.42
2024-05-09T02:08:18.930Z,8.41
2024-05-09T02:10:47.832Z,8.36
2024-05-09T02:13:16.846Z,8.26
2024-05-09T02:15:45.050Z,8.20
2024-05-09T02:18:13.277Z,8.16
2024-05-09T02:20:43.034Z,8.11
2024-05-09T02:23:14.658Z,8.02
2024-05-09T02:25:42.893Z,8.00
2024-05-09T02:28:10.470Z,7.98
2024-05-09T02:30:41.286Z,7.95
2024-05-09T02:33:12.670Z,8.04
2024-05-09T02:35:43.373Z,8.08
2024-05-09T02:38:12.312Z,8.08
2024-05-09T02:40:40.985Z,8.17
2024-05-09T02:43:10.657Z,8.19
2024-05-09T02:45:41.831Z,8.16
2024-05-09T02:48:14.210Z,8.16
2024-05-09T02:50:45.163Z,8.15
2024-05-09T02:53:14.084Z,8.18
2024-05-09T02:55:43.234Z,8.19
2024-05-09T02:58:11.226Z,8.18
2024-05-09T03:00:42.038Z,8.14
2024-05-09T03:03:13.444Z,8.13
2024-05-09T03:05:43.977Z,8.10
2024-05-09T03:08:12.533Z,8.09
2024-05-09T03:10:40.515Z,8.08
2024-05-09T03:13:15.435Z,8.06
2024-05-09T03:15:45.110Z,8.06
2024-05-09T03:18:13.223Z,8.01
2024-05-09T03:20:41.381Z,8.04
2024-05-09T03:23:10.349Z,8.04
2024-05-09T03:25:39.453Z,8.13
2024-05-09T03:28:07.650Z,8.22
2024-05-09T03:30:41.102Z,8.27
2024-05-09T03:33:13.516Z,8.38
2024-05-09T03:35:43.182Z,8.44
2024-05-09T03:38:13.283Z,8.55
2024-05-09T03:40:48.735Z,8.67
2024-05-09T03:43:17.451Z,8.83
2024-05-09T03:45:46.278Z,8.95
2024-05-09T03:48:14.572Z,9.13
2024-05-09T03:50:42.857Z,9.21
2024-05-09T03:53:11.840Z,9.36
2024-05-09T03:55:39.810Z,9.46
2024-05-09T03:58:13.217Z,9.50
2024-05-09T04:00:42.710Z,9.58
2024-05-09T04:03:12.597Z,9.67
2024-05-09T04:05:42.944Z,9.69
2024-05-09T04:08:14.895Z,9.77
2024-05-09T04:10:43.488Z,9.76
2024-05-09T04:13:11.539Z,9.85
2024-05-09T04:15:40.092Z,9.90
2024-05-09T04:18:08.110Z,9.93
2024-05-09T04:20:39.764Z,10.07
2024-05-09T04:23:13.854Z,10.25
2024-05-09T04:25:45.115Z,10.37
2024-05-09T04:28:14.503Z,10.51
2024-05-09T04:30:43.238Z,10.64
2024-05-09T04:33:13.588Z,10.77
2024-05-09T04:35:44.068Z,10.89
2024-05-09T04:38:12.860Z,11.07
2024-05-09T04:40:40.735Z,11.19
2024-05-09T04:43:16.193Z,11.36
2024-05-09T04:45:44.475Z,11.52
2024-05-09T04:48:12.481Z,11.65
2024-05-09T04:50:40.788Z,11.76
2024-05-09T04:53:10.202Z,11.97
2024-05-09T04:55:39.964Z,12.20
2024-05-09T04:58:09.626Z,12.32
2024-05-09T05:00:40.502Z,12.40
2024-05-09T05:03:11.551Z,12.62
2024-05-09T05:05:42.078Z,12.75
2024-05-09T05:08:16.630Z,12.87
2024-05-09T05:10:46.764Z,12.88
2024-05-09T05:13:21.496Z,13.03
2024-05-09T05:15:57.357Z,13.21
2024-05-09T05:18:26.860Z,13.38
2024-05-09T05:20:56.786Z,13.47
2024-05-09T05:23:25.921Z,13.62
2024-05-09T05:25:55.677Z,13.70
2024-05-09T05:28:24.183Z,13.77
2024-05-09T05:30:52.809Z,13.88
2024-05-09T05:33:23.127Z,14.01
2024-05-09T05:35:51.345Z,14.13
2024-05-09T05:38:21.252Z,14.18
2024-05-09T05:40:51.561Z,14.20
2024-05-09T05:43:20.319Z,14.43
2024-05-09T05:45:48.423Z,14.45
2024-05-09T05:48:18.029Z,14.42
2024-05-09T05:50:47.919Z,14.50
2024-05-09T05:53:15.957Z,14.62
2024-05-09T05:55:44.644Z,14.66
2024-05-09T05:58:13.188Z,14.76
2024-05-09T06:00:42.516Z,14.94
2024-05-09T06:03:13.029Z,14.97
2024-05-09T06:05:44.295Z,14.85
2024-05-09T06:08:13.312Z,15.13
2024-05-09T06:10:41.656Z,15.27
2024-05-09T06:13:11.533Z,15.51
2024-05-09T06:15:40.176Z,15.74
2024-05-09T06:18:08.959Z,15.63
2024-05-09T06:20:38.349Z,15.67
2024-05-09T06:23:06.861Z,15.55
2024-05-09T06:25:34.904Z,15.44
2024-05-09T06:28:02.839Z,15.38
2024-05-09T06:30:37.894Z,15.35
2024-05-09T06:33:11.316Z,15.31
2024-05-09T06:35:41.535Z,15.22
2024-05-09T06:38:09.531Z,15.37
2024-05-09T06:40:41.050Z,15.32
2024-05-09T06:43:19.140Z,15.35
2024-05-09T06:45:48.843Z,15.45
2024-05-09T06:48:20.207Z,15.35
2024-05-09T06:50:48.971Z,15.44
2024-05-09T06:53:17.394Z,15.38
2024-05-09T06:55:45.231Z,15.46
2024-05-09T06:58:12.969Z,15.51
2024-05-09T07:00:42.140Z,15.40
2024-05-09T07:03:11.749Z,15.39
2024-05-09T07:05:40.796Z,15.47
2024-05-09T07:08:08.944Z,15.60
2024-05-09T07:10:37.182Z,15.86
2024-05-09T07:13:12.478Z,15.82
2024-05-09T07:15:41.296Z,15.83
2024-05-09T07:18:13.415Z,15.92
2024-05-09T07:20:42.189Z,16.02
2024-05-09T07:23:11.418Z,15.99
2024-05-09T07:25:40.417Z,15.96
2024-05-09T07:28:15.500Z,16.03
2024-05-09T07:30:43.549Z,16.15
2024-05-09T07:33:17.123Z,16.24
2024-05-09T07:35:45.274Z,16.32
2024-05-09T07:38:13.298Z,16.46
2024-05-09T07:40:42.160Z,16.51
2024-05-09T07:43:12.093Z,16.60
2024-05-09T07:45:50.426Z,16.75
2024-05-09T07:52:39.298Z,17.10
2024-05-09T07:53:48.329Z,17.04
2024-05-09T07:56:21.756Z,16.97
2024-05-09T07:58:52.022Z,17.12
2024-05-09T08:01:21.179Z,17.15
2024-05-09T08:03:50.891Z,17.38
2024-05-09T08:06:19.081Z,17.45
2024-05-09T08:08:47.841Z,17.46
2024-05-09T08:11:15.480Z,17.65
2024-05-09T08:13:43.656Z,17.51
2024-05-09T08:16:11.253Z,17.54
2024-05-09T08:18:39.246Z,17.64
2024-05-09T08:21:07.499Z,17.75
2024-05-09T08:23:34.840Z,17.84
2024-05-09T08:26:02.813Z,17.86
2024-05-09T08:28:30.617Z,17.97
2024-05-09T08:31:00.039Z,17.91
2024-05-09T08:33:30.371Z,18.15
2024-05-09T08:35:58.821Z,18.17
2024-05-09T08:38:26.175Z,18.20
2024-05-09T08:40:54.232Z,18.12
2024-05-09T08:43:23.397Z,18.14
2024-05-09T08:45:51.824Z,18.06
2024-05-09T08:48:20.875Z,17.94
2024-05-09T08:50:52.564Z,17.84
2024-05-09T08:53:20.608Z,18.02
2024-05-09T08:55:52.010Z,17.92
2024-05-09T08:58:20.451Z,18.02
2024-05-09T09:00:49.483Z,18.23
2024-05-09T09:03:23.899Z,18.36
2024-05-09T09:06:07.340Z,18.35
2024-05-09T09:08:35.102Z,18.24
2024-05-09T09:11:02.487Z,18.39
2024-05-09T09:13:30.016Z,18.28
2024-05-09T09:15:59.375Z,17.87
2024-05-09T09:18:28.820Z,17.83
2024-05-09T09:20:57.202Z,18.14
2024-05-09T09:23:28.562Z,18.51
2024-05-09T09:26:02.005Z,18.53
2024-05-09T09:28:30.404Z,18.61
2024-05-09T09:31:05.007Z,18.68
2024-05-09T09:33:33.324Z,18.50
2024-05-09T09:36:03.210Z,18.75
2024-05-09T09:38:32.195Z,18.77
2024-05-09T09:41:00.372Z,18.52
2024-05-09T09:43:28.871Z,18.79
2024-05-09T09:46:00.233Z,19.01
2024-05-09T09:48:27.961Z,18.89
2024-05-09T09:50:55.978Z,18.59
2024-05-09T09:53:24.492Z,18.71
2024-05-09T09:55:52.601Z,18.78
2024-05-09T09:58:20.625Z,18.92
2024-05-09T10:00:48.330Z,19.15
2024-05-09T10:03:16.158Z,19.22
2024-05-09T10:05:46.418Z,19.26
2024-05-09T10:08:16.294Z,18.99
2024-05-09T10:10:47.300Z,19.13
2024-05-09T10:13:15.281Z,19.11
2024-05-09T10:15:47.100Z,19.27
2024-05-09T10:18:15.811Z,19.16
2024-05-09T10:20:47.399Z,19.34
2024-05-09T10:23:29.105Z,19.07
2024-05-09T10:26:06.068Z,19.36
2024-05-09T10:28:36.105Z,19.26
2024-05-09T10:31:11.736Z,18.90
2024-05-09T10:33:50.685Z,19.08
2024-05-09T10:36:20.399Z,19.25
2024-05-09T10:38:49.454Z,19.44
2024-05-09T10:41:17.851Z,19.19
2024-05-09T10:43:45.520Z,19.41
2024-05-09T10:46:13.979Z,19.49
2024-05-09T10:48:43.467Z,19.63
2024-05-09T10:51:11.520Z,19.73
2024-05-09T10:53:43.603Z,19.73
2024-05-09T10:56:12.102Z,19.98
2024-05-09T10:58:39.930Z,20.00
2024-05-09T11:01:09.241Z,19.74
2024-05-09T11:03:37.743Z,19.76
2024-05-09T11:06:07.158Z,19.46
2024-05-09T11:08:35.762Z,19.73
2024-05-09T11:11:08.292Z,20.02
2024-05-09T11:13:40.845Z,19.99
2024-05-09T11:16:26.770Z,20.01
2024-05-09T11:18:56.429Z,19.81
2024-05-09T11:21:24.917Z,19.76
2024-05-09T11:23:53.276Z,19.58
2024-05-09T11:26:22.539Z,19.87
2024-05-09T11:28:51.155Z,20.21
2024-05-09T11:31:19.493Z,20.49
2024-05-09T11:33:47.694Z,20.47
2024-05-09T11:36:15.660Z,20.54
2024-05-09T11:38:43.446Z,20.61
2024-05-09T11:41:34.164Z,20.67
2024-05-09T11:44:05.595Z,20.38
2024-05-09T11:46:33.129Z,20.39
2024-05-09T11:49:01.493Z,20.76
2024-05-09T11:51:28.989Z,20.96
2024-05-09T11:53:56.204Z,21.13
2024-05-09T11:56:23.924Z,21.02
2024-05-09T11:58:53.749Z,21.10
2024-05-09T12:01:22.025Z,20.44
2024-05-09T12:03:52.423Z,20.96
2024-05-09T12:06:20.007Z,20.78
2024-05-09T12:08:48.076Z,20.72
2024-05-09T12:11:16.877Z,20.81
2024-05-09T12:13:44.463Z,20.90
2024-05-09T12:16:12.469Z,21.21
2024-05-09T12:18:40.412Z,21.30
2024-05-09T12:21:08.485Z,21.27
2024-05-09T12:23:36.258Z,21.47
2024-05-09T12:26:04.439Z,21.41
2024-05-09T12:28:32.910Z,21.50
2024-05-09T12:31:00.281Z,21.81
2024-05-09T12:33:27.792Z,22.00
2024-05-09T12:35:56.256Z,22.10
2024-05-09T12:38:24.418Z,21.92
2024-05-09T12:40:52.367Z,21.97
2024-05-09T12:43:20.575Z,22.20
2024-05-09T12:45:48.476Z,21.99
2024-05-09T12:48:16.538Z,21.92
2024-05-09T12:50:44.260Z,22.08
2024-05-09T12:53:12.499Z,21.74
2024-05-09T12:55:48.340Z,21.57
2024-05-09T12:58:22.965Z,21.32
2024-05-09T13:00:52.473Z,21.02
2024-05-09T13:03:21.049Z,21.37
2024-05-09T13:05:50.304Z,21.18
2024-05-09T13:08:18.700Z,21.19
2024-05-09T13:10:46.461Z,20.91
2024-05-09T13:13:14.895Z,21.27
2024-05-09T13:15:43.021Z,21.09
2024-05-09T13:18:10.772Z,21.19
2024-05-09T13:20:38.142Z,21.41
2024-05-09T13:23:07.758Z,21.79
2024-05-09T13:25:38.747Z,22.12
2024-05-09T13:28:07.968Z,22.31
2024-05-09T13:30:40.644Z,22.29
2024-05-09T13:33:16.209Z,22.47
2024-05-09T13:35:48.946Z,22.81
2024-05-09T13:38:19.746Z,22.99
2024-05-09T13:40:48.304Z,23.06
2024-05-09T13:43:16.387Z,23.19
2024-05-09T13:45:44.030Z,23.37
2024-05-09T13:48:11.477Z,25.51
2024-05-09T13:50:39.568Z,26.23
2024-05-09T13:53:08.277Z,26.60
2024-05-09T13:55:40.390Z,27.22
2024-05-09T13:58:09.130Z,27.49
2024-05-09T14:00:45.905Z,26.96
2024-05-09T14:03:20.357Z,27.77
2024-05-09T14:05:50.847Z,25.01
2024-05-09T14:08:20.430Z,23.82
2024-05-09T14:10:49.798Z,23.97
2024-05-09T14:15:46.403Z,23.39
2024-05-09T14:18:14.992Z,23.13
2024-05-09T14:20:43.695Z,22.68
2024-05-09T14:23:11.202Z,22.79
2024-05-09T14:25:42.461Z,22.50
2024-05-09T14:28:12.723Z,22.34
2024-05-09T14:30:41.518Z,22.69
2024-05-09T14:33:09.904Z,22.60
2024-05-09T14:35:39.244Z,22.49
2024-05-09T14:38:08.655Z,22.52
2024-05-09T14:40:42.204Z,22.06
2024-05-09T14:43:13.445Z,21.89
2024-05-09T14:45:43.126Z,22.05
2024-05-09T14:48:12.215Z,21.65
2024-05-09T14:50:43.181Z,21.93
2024-05-09T14:53:13.612Z,21.97
2024-05-09T14:55:43.566Z,22.01
2024-05-09T14:58:13.387Z,21.73
2024-05-09T15:00:46.732Z,21.78
2024-05-09T15:03:21.551Z,21.92
2024-05-09T15:05:51.378Z,22.23
2024-05-09T15:08:19.997Z,21.86
2024-05-09T15:10:50.548Z,22.15
2024-05-09T15:13:19.476Z,22.33
2024-05-09T15:15:47.577Z,22.44
2024-05-09T15:18:15.414Z,22.24
2024-05-09T15:20:45.412Z,21.69
2024-05-09T15:23:13.298Z,21.56
2024-05-09T15:25:41.226Z,21.70
2024-05-09T15:28:09.430Z,21.93
2024-05-09T15:30:37.681Z,22.13
2024-05-09T15:33:06.844Z,22.17
2024-05-09T15:35:36.375Z,22.13
2024-05-09T15:38:05.082Z,22.04
2024-05-09T15:40:39.554Z,22.05
2024-05-09T15:43:11.443Z,22.13
2024-05-09T15:45:40.850Z,22.23
2024-05-09T15:48:09.074Z,22.38
2024-05-09T15:50:40.079Z,22.23
2024-05-09T15:53:11.832Z,22.43
2024-05-09T15:55:40.309Z,22.46
2024-05-09T15:58:08.152Z,22.31
2024-05-09T16:00:39.953Z,22.17
2024-05-09T16:03:13.763Z,21.89
2024-05-09T16:05:45.087Z,21.43
2024-05-09T16:08:13.208Z,21.38
2024-05-09T16:10:44.591Z,21.51
2024-05-09T16:13:12.884Z,21.65
2024-05-09T16:15:40.215Z,21.43
2024-05-09T16:18:07.672Z,21.35
2024-05-09T16:20:40.067Z,21.51
2024-05-09T16:23:10.767Z,21.51
2024-05-09T16:25:42.758Z,21.11
2024-05-09T16:28:10.928Z,21.21
2024-05-09T16:30:40.186Z,21.33
2024-05-09T16:33:08.863Z,20.87
2024-05-09T16:35:41.003Z,20.86
2024-05-09T16:38:08.508Z,21.08
2024-05-09T16:40:40.250Z,21.02
2024-05-09T16:43:13.528Z,21.03
2024-05-09T16:45:44.806Z,20.99
2024-05-09T16:48:14.969Z,20.85
2024-05-09T16:50:42.281Z,20.78
2024-05-09T16:53:09.608Z,20.77
2024-05-09T16:55:37.141Z,20.62
2024-05-09T16:58:05.129Z,20.77
2024-05-09T17:00:40.282Z,20.73
2024-05-09T17:03:12.878Z,20.69
2024-05-09T17:05:41.703Z,20.51
2024-05-09T17:08:09.436Z,20.46
2024-05-09T17:10:37.106Z,20.31
2024-05-09T17:13:06.363Z,20.28
2024-05-09T17:15:35.659Z,20.18
2024-05-09T17:18:04.006Z,20.19
2024-05-09T17:20:34.724Z,20.00
2024-05-09T17:23:05.646Z,19.94
2024-05-09T17:25:33.760Z,19.74
2024-05-09T17:28:07.857Z,19.61
2024-05-09T17:30:38.262Z,19.47
2024-05-09T17:33:09.693Z,19.36
2024-05-09T17:35:37.760Z,19.29
2024-05-09T17:38:08.020Z,19.26
2024-05-09T17:40:37.371Z,19.11
2024-05-09T17:43:10.166Z,18.95
2024-05-09T17:45:39.773Z,18.91
2024-05-09T17:48:09.672Z,18.81
2024-05-09T17:50:38.361Z,18.72
2024-05-09T17:53:07.279Z,18.63
2024-05-09T17:55:35.336Z,18.48
2024-05-09T17:58:03.703Z,18.39
2024-05-09T18:00:38.032Z,18.28
2024-05-09T18:03:12.141Z,18.18
2024-05-09T18:05:41.102Z,18.09
2024-05-09T18:08:09.069Z,18.00
2024-05-09T18:10:39.244Z,17.86
2024-05-09T18:13:08.803Z,17.79
2024-05-09T18:15:37.288Z,17.76
2024-05-09T18:18:06.573Z,17.64
2024-05-09T18:20:41.823Z,17.49
2024-05-09T18:23:14.391Z,17.26
2024-05-09T18:25:42.923Z,17.05
2024-05-09T18:28:10.549Z,16.86
2024-05-09T18:30:38.108Z,16.69
2024-05-09T18:33:07.817Z,16.59
2024-05-09T18:35:36.915Z,16.44
2024-05-09T18:38:05.603Z,16.25
2024-05-09T18:40:36.540Z,16.11
2024-05-09T18:43:08.600Z,15.96
2024-05-09T18:45:38.212Z,15.85
2024-05-09T18:48:10.350Z,15.69
2024-05-09T18:50:40.304Z,15.56
2024-05-09T18:53:11.356Z,15.44
2024-05-09T18:55:39.834Z,15.34
2024-05-09T18:58:07.344Z,15.25
2024-05-09T19:00:38.422Z,15.11
2024-05-09T19:03:10.514Z,15.01
2024-05-09T19:05:40.728Z,14.89
2024-05-09T19:08:08.903Z,14.80
2024-05-09T19:10:39.230Z,14.72
2024-05-09T19:13:11.548Z,14.65
2024-05-09T19:15:41.718Z,14.59
2024-05-09T19:18:12.583Z,14.53
2024-05-09T19:20:40.525Z,14.47
2024-05-09T19:23:07.945Z,14.40
2024-05-09T19:25:38.459Z,14.33
2024-05-09T19:28:06.217Z,14.27
2024-05-09T19:30:39.154Z,14.21
2024-05-09T19:33:11.172Z,14.11
2024-05-09T19:35:39.946Z,14.06
2024-05-09T19:38:09.359Z,14.02
2024-05-09T19:40:36.870Z,13.97
2024-05-09T19:43:05.927Z,13.89
2024-05-09T19:45:35.195Z,13.80
2024-05-09T19:48:03.763Z,13.76
2024-05-09T19:50:37.919Z,13.64
2024-05-09T19:53:10.670Z,13.54
2024-05-09T19:55:38.393Z,13.44
2024-05-09T19:58:07.373Z,13.37
2024-05-09T20:00:43.234Z,13.28
2024-05-09T20:03:12.896Z,13.20
2024-05-09T20:05:42.334Z,13.12
2024-05-09T20:08:09.653Z,13.09
2024-05-09T20:10:37.644Z,13.12
2024-05-09T20:13:06.762Z,13.05
2024-05-09T20:15:37.093Z,13.03
2024-05-09T20:18:07.820Z,12.99
2024-05-09T20:20:39.816Z,12.93
2024-05-09T20:23:14.666Z,12.84
2024-05-09T20:25:44.184Z,12.74
2024-05-09T20:28:13.108Z,12.68
2024-05-09T20:30:43.136Z,12.58
2024-05-09T20:33:12.673Z,12.51
2024-05-09T20:35:42.410Z,12.46
2024-05-09T20:38:13.123Z,12.39
2024-05-09T20:40:44.831Z,12.35
2024-05-09T20:43:13.938Z,12.33
2024-05-09T20:45:41.569Z,12.29
2024-05-09T20:48:13.728Z,12.24
2024-05-09T20:50:42.869Z,12.16
2024-05-09T20:53:14.939Z,12.03
2024-05-09T20:55:47.596Z,11.90
2024-05-09T20:58:15.163Z,11.88
2024-05-09T21:00:45.440Z,11.79
2024-05-09T21:03:16.935Z,11.68
2024-05-09T21:05:45.970Z,11.60
2024-05-09T21:08:14.116Z,11.57
2024-05-09T21:10:42.029Z,11.47
2024-05-09T21:13:10.856Z,11.48
2024-05-09T21:15:39.311Z,11.40
2024-05-09T21:18:08.043Z,11.32
2024-05-09T21:20:38.128Z,11.33
2024-05-09T21:23:06.113Z,11.23
2024-05-09T21:25:33.374Z,11.21
2024-05-09T21:28:01.199Z,11.21
2024-05-09T21:30:38.505Z,11.18
2024-05-09T21:33:12.467Z,11.11
2024-05-09T21:35:43.683Z,11.03
2024-05-09T21:38:11.946Z,11.00
2024-05-09T21:40:42.419Z,10.99
2024-05-09T21:43:10.038Z,10.94
2024-05-09T21:45:38.738Z,10.89
2024-05-09T21:48:07.280Z,10.88
2024-05-09T21:50:40.417Z,10.84
2024-05-09T21:53:11.565Z,10.81
2024-05-09T21:55:40.214Z,10.76
2024-05-09T21:58:08.314Z,10.73
2024-05-09T22:00:38.673Z,10.73
2024-05-09T22:03:08.793Z,10.67
2024-05-09T22:05:38.217Z,10.66
2024-05-09T22:08:06.493Z,10.61
2024-05-09T22:10:36.526Z,10.61
2024-05-09T22:13:06.605Z,10.59
2024-05-09T22:15:37.010Z,10.59
2024-05-09T22:18:10.139Z,10.56
2024-05-09T22:20:45.562Z,10.57
2024-05-09T22:23:14.308Z,10.54
2024-05-09T22:25:42.659Z,10.54
2024-05-09T22:28:14.196Z,10.50
2024-05-09T22:30:44.343Z,10.45
2024-05-09T22:33:14.444Z,10.43
2024-05-09T22:35:45.028Z,10.39
2024-05-09T22:38:13.833Z,10.33
2024-05-09T22:40:47.488Z,10.23
2024-05-09T22:43:23.240Z,10.18
2024-05-09T22:45:55.958Z,10.13
2024-05-09T22:48:25.652Z,10.09
2024-05-09T22:50:55.138Z,10.04
2024-05-09T22:53:27.978Z,10.03
2024-05-09T22:55:56.025Z,10.01
2024-05-09T22:58:24.475Z,9.96
2024-05-09T23:00:52.523Z,9.94
2024-05-09T23:03:22.008Z,9.86
2024-05-09T23:05:50.405Z,9.81
2024-05-09T23:08:18.126Z,9.72
2024-05-09T23:10:47.523Z,9.71
2024-05-09T23:13:15.654Z,9.69
2024-05-09T23:15:43.652Z,9.60
2024-05-09T23:18:12.276Z,9.56
2024-05-09T23:20:43.480Z,9.53
2024-05-09T23:23:12.378Z,9.49
2024-05-09T23:25:41.867Z,9.47
2024-05-09T23:28:10.954Z,9.47
2024-05-09T23:30:40.883Z,9.43
2024-05-09T23:33:13.422Z,9.41
2024-05-09T23:35:42.530Z,9.38
2024-05-09T23:38:10.104Z,9.29
2024-05-09T23:40:40.336Z,9.30
2024-05-09T23:43:11.268Z,9.29
2024-05-09T23:45:40.860Z,9.28
2024-05-09T23:48:09.450Z,9.21
2024-05-09T23:50:39.231Z,9.14
2024-05-09T23:53:12.903Z,9.08
2024-05-09T23:55:41.538Z,8.99
2024-05-09T23:58:14.431Z,8.93
